Wentworth, NH (03282)

8:11 PM EDT on October 01, 2014 (GMT -0400)
Red Oak Hill | Change Station
CLOSE
Current Station
Personal Weather Station
Location: Wentworth, NH
Elevation: 709 ft
Nearby Weather Stations

Elev 709 ft 43.89 °N, 71.90 °W | Updated 1 second ago

Overcast
Overcast
58.8 °F
Feels Like 58.8 °F
N
0.0
Wind Variable Wind from NNW
Gusts 0.0 mph

Today
High -- | Low -- °F
--% Chance of Precip.
Yesterday
High -- | Low -- °F
Precip. -- in
6:45 AM 6:28 PM
First Quarter, 52% visible
Pressure 30.15 in
Visibility 10.0 miles
Clouds Scattered Clouds 1800 ft
Scattered Clouds 2400 ft
Overcast 3600 ft
Dew Point 54 °F
Humidity 83%
Rainfall 0.00 in
Snow Depth Not available.
UV 0.0 out of 12
Pollen .90 out of 12
Ozone Good
PM2.5 Good
Flu Activity Not available.
METAR K1P1 012355Z AUTO 00000KT 10SM SCT018 SCT024 OVC036 15/14 A3015 RMK AO2 T01450137 10166 20145

More Conditions Fewer Conditions

Pressure 30.15 in
Visibility 10.0 miles
Clouds Scattered Clouds 1800 ft
Scattered Clouds 2400 ft
Overcast 3600 ft
Dew Point 54 °F
Humidity 83%
Rainfall 0.00 in
Snow Depth Not available.
UV 0.0 out of 12
Pollen .90 out of 12
Ozone Good
PM2.5 Good
Flu Activity Not available.
METAR K1P1 012355Z AUTO 00000KT 10SM SCT018 SCT024 OVC036 15/14 A3015 RMK AO2 T01450137 10166 20145

More Conditions Fewer Conditions

10-Day Weather Forecast

Almanac

Astronomy

Oct. 01, 2014 Rise Set
Actual Time 6:45 AM EDT 6:28 PM EDT
Civil Twilight 6:16 AM EDT 6:57 PM EDT
Nautical Twilight 5:43 AM EDT 7:30 PM EDT
Astronomical Twilight 5:09 AM EDT 8:04 PM EDT
Moon 1:52 PM EDT (10/1) 11:49 PM EDT (10/1)
Length of Visible Light 12h 40m
Length of Day
11h 43m
Tomorrow will be 2m 59s shorter.
First Quarter, 52% of the Moon is Illuminated
Today
First Quarter
Oct 8
Full
Oct 15
Last Quarter
Oct 23
New
Oct 30
First Quarter

Today's Extremes

State Highs State Lows

Community

WunderPhotos

Upload Photos

1,758,097 photos uploaded!

WunderBlogs® & News

Nearby

Air Quality

  Air Quality AQ Index Pollutant
Yesterday Good
OZONE
Yesterday Good
PM2.5
Current Good
PM2.5
Current Good
OZONE
Wednesday Good
PM2.5
Wednesday Good
OZONE
Thursday Good
PM2.5
Thursday Good
OZONE

Snow Depth

Station Depth Elevation
No new snow has been reported.

Earthquake Activity

City Distance Mag. Time & Date
No recent earthquake activity has been reported nearby.
Minimum magnitude displayed is 2.5.

Coastal Water Temperatures

Place Temperature
No Stations Reporting

Nearby Weather Stations